createdAt,value
2018-03-15T00:02:06.779Z,4.60
2018-03-15T00:04:35.111Z,4.50
2018-03-15T00:07:02.598Z,4.60
2018-03-15T00:09:30.029Z,4.60
2018-03-15T00:11:57.513Z,4.60
2018-03-15T00:14:24.972Z,4.50
2018-03-15T00:16:52.429Z,4.50
2018-03-15T00:19:19.872Z,4.60
2018-03-15T00:21:47.343Z,4.60
2018-03-15T00:24:14.786Z,4.60
2018-03-15T00:26:42.234Z,4.60
2018-03-15T00:29:09.710Z,4.60
2018-03-15T00:31:37.165Z,4.60
2018-03-15T00:34:04.726Z,4.60
2018-03-15T00:36:32.187Z,4.60
2018-03-15T00:38:59.640Z,4.60
2018-03-15T00:41:27.089Z,4.60
2018-03-15T00:43:54.710Z,4.50
2018-03-15T00:46:22.146Z,4.50
2018-03-15T00:48:50.373Z,4.50
2018-03-15T00:51:17.822Z,4.40
2018-03-15T00:53:45.263Z,4.40
2018-03-15T00:56:12.747Z,4.40
2018-03-15T00:58:40.200Z,4.30
2018-03-15T01:01:07.663Z,4.30
2018-03-15T01:03:35.106Z,4.30
2018-03-15T01:06:02.567Z,4.30
2018-03-15T01:08:30.010Z,4.30
2018-03-15T01:10:57.582Z,4.20
2018-03-15T01:13:25.026Z,4.30
2018-03-15T01:15:52.469Z,4.40
2018-03-15T01:18:19.911Z,4.40
2018-03-15T01:20:47.342Z,4.30
2018-03-15T01:23:15.566Z,4.30
2018-03-15T01:25:43.034Z,4.20
2018-03-15T01:28:10.501Z,4.20
2018-03-15T01:30:37.934Z,4.20
2018-03-15T01:33:05.375Z,4.20
2018-03-15T01:35:32.818Z,4.20
2018-03-15T01:38:00.264Z,4.20
2018-03-15T01:40:28.498Z,4.10
2018-03-15T01:42:55.946Z,4.10
2018-03-15T01:45:23.383Z,4.10
2018-03-15T01:47:50.841Z,4.10
2018-03-15T01:50:18.296Z,4.10
2018-03-15T01:52:45.769Z,4.00
2018-03-15T01:55:13.226Z,4.10
2018-03-15T01:57:40.666Z,4.10
2018-03-15T02:00:08.110Z,4.10
2018-03-15T02:02:35.555Z,4.00
2018-03-15T02:05:03.755Z,3.90
2018-03-15T02:07:31.191Z,3.80
2018-03-15T02:09:58.700Z,3.90
2018-03-15T02:12:26.135Z,3.90
2018-03-15T02:14:53.570Z,3.80
2018-03-15T02:17:21.001Z,3.80
2018-03-15T02:19:49.227Z,3.80
2018-03-15T02:22:17.431Z,3.80
2018-03-15T02:24:44.877Z,3.70
2018-03-15T02:27:12.322Z,3.70
2018-03-15T02:29:39.770Z,3.70
2018-03-15T02:32:07.209Z,3.60
2018-03-15T02:34:34.685Z,3.60
2018-03-15T02:37:02.138Z,3.60
2018-03-15T02:39:29.677Z,3.50
2018-03-15T02:41:57.105Z,3.60
2018-03-15T02:44:25.330Z,3.50
2018-03-15T02:46:52.794Z,3.40
2018-03-15T02:49:20.262Z,3.40
2018-03-15T02:51:47.716Z,3.40
2018-03-15T02:54:15.147Z,3.40
2018-03-15T02:56:42.594Z,3.40
2018-03-15T02:59:10.076Z,3.30
2018-03-15T03:01:37.533Z,3.30
2018-03-15T03:04:04.972Z,3.30
2018-03-15T03:06:32.451Z,3.30
2018-03-15T03:08:59.910Z,3.30
2018-03-15T03:11:27.446Z,3.20
2018-03-15T03:13:54.886Z,3.10
2018-03-15T03:16:22.333Z,3.10
2018-03-15T03:18:49.763Z,3.10
2018-03-15T03:21:17.972Z,3.00
2018-03-15T03:23:45.418Z,3.00
2018-03-15T03:26:12.863Z,3.00
2018-03-15T03:28:40.366Z,3.00
2018-03-15T03:31:07.798Z,2.90
2018-03-15T03:33:35.262Z,2.90
2018-03-15T03:36:02.715Z,2.90
2018-03-15T03:38:30.186Z,2.80
2018-03-15T03:40:57.641Z,2.80
2018-03-15T03:43:25.078Z,2.80
2018-03-15T03:45:52.507Z,2.70
2018-03-15T03:48:20.736Z,2.70
2018-03-15T03:50:48.173Z,2.70
2018-03-15T03:53:15.607Z,2.70
2018-03-15T03:55:43.110Z,2.60
2018-03-15T03:58:11.052Z,2.60
2018-03-15T04:00:38.486Z,2.60
2018-03-15T04:03:05.951Z,2.50
2018-03-15T04:05:33.388Z,2.50
2018-03-15T04:08:01.587Z,2.50
2018-03-15T04:10:29.016Z,2.50
2018-03-15T04:12:57.233Z,2.60
2018-03-15T04:15:24.662Z,2.60
2018-03-15T04:17:52.158Z,2.60
2018-03-15T04:20:19.601Z,2.60
2018-03-15T04:22:47.046Z,2.50
2018-03-15T04:25:14.488Z,2.50
2018-03-15T04:27:41.970Z,2.60
2018-03-15T04:30:09.516Z,2.50
2018-03-15T04:32:36.987Z,2.50
2018-03-15T04:35:04.558Z,2.50
2018-03-15T04:37:32.000Z,2.50
2018-03-15T04:39:59.430Z,2.60
2018-03-15T04:42:26.880Z,2.60
2018-03-15T04:44:54.385Z,2.60
2018-03-15T04:47:21.833Z,2.70
2018-03-15T04:49:49.398Z,2.70
2018-03-15T04:52:16.834Z,2.70
2018-03-15T04:54:44.274Z,2.70
2018-03-15T04:57:11.706Z,2.80
2018-03-15T04:59:39.921Z,2.90
2018-03-15T05:02:07.360Z,2.80
2018-03-15T05:04:34.802Z,2.90
2018-03-15T05:07:02.306Z,2.80
2018-03-15T05:09:29.754Z,2.80
2018-03-15T05:11:57.195Z,2.80
2018-03-15T05:14:24.651Z,2.80
2018-03-15T05:16:52.138Z,2.80
2018-03-15T05:19:19.582Z,2.90
2018-03-15T05:21:47.025Z,2.90
2018-03-15T05:24:14.463Z,2.90
2018-03-15T05:26:41.905Z,3.00
2018-03-15T05:29:09.349Z,3.00
2018-03-15T05:31:37.556Z,3.00
2018-03-15T05:34:04.998Z,2.90
2018-03-15T05:36:32.430Z,3.00
2018-03-15T05:38:59.869Z,3.10
2018-03-15T05:41:27.330Z,3.10
2018-03-15T05:43:54.808Z,3.10
2018-03-15T05:46:22.254Z,3.10
2018-03-15T05:48:49.670Z,3.10
2018-03-15T05:51:17.127Z,3.10
2018-03-15T05:53:44.550Z,3.10
2018-03-15T05:56:11.994Z,3.00
2018-03-15T05:58:39.426Z,3.10
2018-03-15T06:01:06.862Z,3.10
2018-03-15T06:03:34.315Z,3.10
2018-03-15T06:06:01.758Z,3.20
2018-03-15T06:08:29.231Z,3.20
2018-03-15T06:10:56.671Z,3.20
2018-03-15T06:13:24.101Z,3.20
2018-03-15T06:15:51.542Z,3.20
2018-03-15T06:18:19.732Z,3.20
2018-03-15T06:20:47.167Z,3.10
2018-03-15T06:23:15.391Z,3.20
2018-03-15T06:25:42.868Z,3.20
2018-03-15T06:28:10.302Z,3.30
2018-03-15T06:30:37.753Z,3.30
2018-03-15T06:33:05.209Z,3.30
2018-03-15T06:35:32.647Z,3.30
2018-03-15T06:38:00.095Z,3.40
2018-03-15T06:40:27.542Z,3.50
2018-03-15T06:42:54.982Z,3.50
2018-03-15T06:45:23.206Z,3.50
2018-03-15T06:47:50.648Z,3.50
2018-03-15T06:50:18.090Z,3.60
2018-03-15T06:52:45.556Z,3.60
2018-03-15T06:55:13.002Z,3.60
2018-03-15T06:57:40.518Z,3.50
2018-03-15T07:00:08.051Z,3.60
2018-03-15T07:02:35.485Z,3.60
2018-03-15T07:05:02.914Z,3.60
2018-03-15T07:07:31.250Z,3.80
2018-03-15T07:09:59.504Z,3.80
2018-03-15T07:12:26.959Z,3.70
2018-03-15T07:14:54.396Z,3.70
2018-03-15T07:17:21.859Z,3.70
2018-03-15T07:19:49.298Z,3.80
2018-03-15T07:22:17.506Z,3.90
2018-03-15T07:24:44.922Z,3.80
2018-03-15T07:27:13.129Z,3.90
2018-03-15T07:29:40.564Z,3.90
2018-03-15T07:32:08.043Z,4.00
2018-03-15T07:34:35.497Z,4.10
2018-03-15T07:37:03.004Z,4.20
2018-03-15T07:39:30.455Z,4.20
2018-03-15T07:41:58.099Z,4.30
2018-03-15T07:44:25.566Z,4.30
2018-03-15T07:46:53.000Z,4.30
2018-03-15T07:49:20.433Z,4.30
2018-03-15T07:51:47.875Z,4.30
2018-03-15T07:54:15.323Z,4.30
2018-03-15T07:56:43.539Z,4.30
2018-03-15T07:59:11.087Z,4.30
2018-03-15T08:01:38.577Z,4.20
2018-03-15T08:04:06.103Z,4.20
2018-03-15T08:06:33.571Z,4.20
2018-03-15T08:09:01.002Z,4.30
2018-03-15T08:11:28.434Z,4.50
2018-03-15T08:13:55.869Z,4.50
2018-03-15T08:16:23.290Z,4.70
2018-03-15T08:18:50.798Z,4.80
2018-03-15T08:21:18.327Z,4.90
2018-03-15T08:23:45.787Z,5.00
2018-03-15T08:26:13.227Z,5.00
2018-03-15T08:28:40.693Z,5.00
2018-03-15T08:31:08.154Z,5.00
2018-03-15T08:33:35.595Z,5.00
2018-03-15T08:36:03.035Z,5.20
2018-03-15T08:38:30.493Z,5.30
2018-03-15T08:40:57.906Z,5.20
2018-03-15T08:43:26.129Z,5.30
2018-03-15T08:45:53.583Z,5.30
2018-03-15T08:48:21.112Z,5.30
2018-03-15T08:50:49.346Z,5.50
2018-03-15T08:53:16.822Z,5.50
2018-03-15T08:55:44.430Z,5.60
2018-03-15T08:58:11.885Z,5.60
2018-03-15T09:00:39.476Z,5.60
2018-03-15T09:03:06.912Z,5.70
2018-03-15T09:05:34.461Z,5.70
2018-03-15T09:08:01.882Z,5.60
2018-03-15T09:10:30.078Z,5.50
2018-03-15T09:12:57.515Z,5.50
2018-03-15T09:15:25.019Z,5.60
2018-03-15T09:17:52.460Z,5.70
2018-03-15T09:20:19.935Z,5.80
2018-03-15T09:22:47.396Z,5.80
2018-03-15T09:25:14.851Z,6.00
2018-03-15T09:27:42.388Z,6.00
2018-03-15T09:30:09.896Z,6.00
2018-03-15T09:32:38.087Z,6.00
2018-03-15T09:35:06.395Z,6.00
2018-03-15T09:37:33.848Z,6.00
2018-03-15T09:40:01.409Z,5.90
2018-03-15T09:42:28.863Z,5.80
2018-03-15T09:44:56.352Z,5.80
2018-03-15T09:47:23.797Z,5.80
2018-03-15T09:49:51.460Z,5.90
2018-03-15T09:52:18.911Z,5.90
2018-03-15T09:54:46.363Z,6.00
2018-03-15T09:57:13.790Z,6.00
2018-03-15T09:59:41.228Z,6.10
2018-03-15T10:02:09.439Z,6.00
2018-03-15T10:04:36.913Z,6.00
2018-03-15T10:07:04.358Z,6.00
2018-03-15T10:09:31.786Z,6.00
2018-03-15T10:11:59.284Z,6.10
2018-03-15T10:14:26.819Z,6.10
2018-03-15T10:16:54.259Z,6.10
2018-03-15T10:19:21.787Z,6.10
2018-03-15T10:21:49.311Z,6.20
2018-03-15T10:24:16.760Z,6.20
2018-03-15T10:26:44.305Z,6.20
2018-03-15T10:29:11.761Z,6.10
2018-03-15T10:31:39.269Z,6.10
2018-03-15T10:34:06.755Z,6.00
2018-03-15T10:36:34.306Z,5.90
2018-03-15T10:39:02.507Z,6.00
2018-03-15T10:41:29.960Z,6.00
2018-03-15T10:43:57.406Z,6.10
2018-03-15T10:46:24.901Z,5.90
2018-03-15T10:48:52.436Z,5.90
2018-03-15T10:51:19.903Z,5.70
2018-03-15T10:53:47.375Z,5.50
2018-03-15T10:56:14.907Z,5.50
2018-03-15T10:58:42.343Z,5.40
2018-03-15T11:01:09.870Z,5.40
2018-03-15T11:03:43.016Z,5.30
2018-03-15T11:06:10.454Z,5.30
2018-03-15T11:08:37.922Z,5.40
2018-03-15T11:11:05.373Z,5.40
2018-03-15T11:13:32.839Z,5.40
2018-03-15T11:16:00.336Z,5.40
2018-03-15T11:18:27.782Z,5.40
2018-03-15T11:20:55.327Z,5.40
2018-03-15T11:23:22.821Z,5.50
2018-03-15T11:25:50.271Z,5.60
2018-03-15T11:28:17.704Z,5.60
2018-03-15T11:30:45.148Z,5.60
2018-03-15T11:33:12.612Z,5.60
2018-03-15T11:35:40.046Z,5.70
2018-03-15T11:38:07.522Z,5.80
2018-03-15T11:40:34.973Z,5.80
2018-03-15T11:43:02.435Z,5.90
2018-03-15T11:45:29.898Z,5.90
2018-03-15T11:47:57.342Z,6.00
2018-03-15T11:50:24.803Z,6.00
2018-03-15T11:52:52.290Z,5.90
2018-03-15T11:55:19.801Z,5.90
2018-03-15T11:57:47.259Z,5.90
2018-03-15T12:00:14.703Z,6.00
2018-03-15T12:02:42.142Z,5.90
2018-03-15T12:05:11.074Z,5.60
2018-03-15T12:07:38.544Z,5.50
2018-03-15T12:10:06.072Z,5.50
2018-03-15T12:12:33.553Z,5.50
2018-03-15T12:15:01.000Z,5.30
2018-03-15T12:17:28.442Z,5.20
2018-03-15T12:19:55.922Z,5.10
2018-03-15T12:22:23.373Z,5.30
2018-03-15T12:24:50.847Z,5.30
2018-03-15T12:27:18.472Z,5.20
2018-03-15T12:29:45.906Z,5.20
2018-03-15T12:32:13.387Z,5.20
2018-03-15T12:34:40.823Z,5.20
2018-03-15T12:37:08.295Z,5.10
2018-03-15T12:39:35.735Z,5.00
2018-03-15T12:42:03.186Z,5.00
2018-03-15T12:44:30.806Z,5.00
2018-03-15T12:46:58.261Z,5.00
2018-03-15T12:49:25.712Z,5.00
2018-03-15T12:51:53.155Z,5.00
2018-03-15T12:54:20.638Z,5.10
2018-03-15T12:56:48.091Z,5.10
2018-03-15T12:59:15.551Z,5.10
2018-03-15T13:01:43.009Z,5.00
2018-03-15T13:04:10.462Z,5.00
2018-03-15T13:06:37.916Z,5.00
2018-03-15T13:09:05.482Z,4.90
2018-03-15T13:11:32.942Z,4.80
2018-03-15T13:14:00.449Z,4.80
2018-03-15T13:19:02.561Z,5.00
2018-03-15T13:21:30.087Z,4.90
2018-03-15T13:23:57.568Z,5.00
2018-03-15T13:26:25.110Z,4.90
2018-03-15T13:28:52.536Z,4.90
2018-03-15T13:31:19.968Z,4.90
2018-03-15T13:33:47.491Z,4.90
2018-03-15T13:36:14.960Z,4.90
2018-03-15T13:38:42.415Z,4.80
2018-03-15T13:41:09.869Z,4.70
2018-03-15T13:43:37.399Z,4.70
2018-03-15T13:46:04.834Z,4.80
2018-03-15T13:48:32.340Z,4.80
2018-03-15T13:50:59.871Z,4.80
2018-03-15T13:53:27.307Z,4.70
2018-03-15T13:55:54.786Z,4.70
2018-03-15T13:58:22.243Z,4.70
2018-03-15T14:00:49.684Z,4.70
2018-03-15T14:03:17.206Z,4.70
2018-03-15T14:05:44.661Z,4.80
2018-03-15T14:08:12.328Z,4.90
2018-03-15T14:10:39.773Z,4.80
2018-03-15T14:13:07.418Z,4.80
2018-03-15T14:15:34.855Z,4.70
2018-03-15T14:18:02.408Z,4.60
2018-03-15T14:20:29.847Z,4.50
2018-03-15T14:22:57.348Z,4.50
2018-03-15T14:25:24.872Z,4.50
2018-03-15T14:27:52.330Z,4.50
2018-03-15T14:30:19.758Z,4.50
2018-03-15T14:32:47.991Z,4.60
2018-03-15T14:35:15.438Z,4.60
2018-03-15T14:37:42.936Z,4.50
2018-03-15T14:40:12.323Z,4.50
2018-03-15T14:42:39.929Z,4.50
2018-03-15T14:45:07.389Z,4.60
2018-03-15T14:47:34.949Z,4.50
2018-03-15T14:50:02.375Z,4.50
2018-03-15T14:52:30.685Z,4.60
2018-03-15T14:54:58.239Z,4.60
2018-03-15T14:57:25.678Z,4.70
2018-03-15T14:59:53.129Z,4.60
2018-03-15T15:02:20.616Z,4.50
2018-03-15T15:04:48.035Z,4.50
2018-03-15T15:07:16.286Z,4.50
2018-03-15T15:09:43.832Z,4.40
2018-03-15T15:12:11.302Z,4.50
2018-03-15T15:14:38.727Z,4.50
2018-03-15T15:17:06.227Z,4.40
2018-03-15T15:19:34.544Z,4.50
2018-03-15T15:22:02.004Z,4.50
2018-03-15T15:24:29.456Z,4.60
2018-03-15T15:26:56.911Z,4.50
2018-03-15T15:29:24.443Z,4.50
2018-03-15T15:31:52.676Z,4.50
2018-03-15T15:34:20.123Z,4.50
2018-03-15T15:36:47.661Z,4.50
2018-03-15T15:39:15.092Z,4.50
2018-03-15T15:41:43.334Z,4.60
2018-03-15T15:44:10.950Z,4.50
2018-03-15T15:46:38.397Z,4.60
2018-03-15T15:49:05.901Z,4.60
2018-03-15T15:51:33.347Z,4.60
2018-03-15T15:54:00.811Z,4.60
2018-03-15T15:56:29.049Z,4.60
2018-03-15T15:58:56.486Z,4.50
2018-03-15T16:01:23.932Z,4.60
2018-03-15T16:03:51.375Z,4.50
2018-03-15T16:06:18.814Z,4.50
2018-03-15T16:08:46.396Z,4.50
2018-03-15T16:11:14.227Z,4.50
2018-03-15T16:13:41.643Z,4.60
2018-03-15T16:16:09.085Z,4.60
2018-03-15T16:18:36.620Z,4.50
2018-03-15T16:21:04.049Z,4.60
2018-03-15T16:23:31.585Z,4.60
2018-03-15T16:25:59.074Z,4.60
2018-03-15T16:28:26.511Z,4.60
2018-03-15T16:30:54.054Z,4.70
2018-03-15T16:33:21.642Z,4.70
2018-03-15T16:35:49.086Z,4.70
2018-03-15T16:38:16.626Z,4.70
2018-03-15T16:40:44.185Z,4.70
2018-03-15T16:43:11.665Z,4.70
2018-03-15T16:45:39.103Z,4.60
2018-03-15T16:48:06.591Z,4.60
2018-03-15T16:50:34.079Z,4.70
2018-03-15T16:53:02.295Z,4.50
2018-03-15T16:55:29.762Z,4.50
2018-03-15T16:57:57.220Z,4.50
2018-03-15T17:00:24.757Z,4.60
2018-03-15T17:02:52.188Z,4.60
2018-03-15T17:05:20.384Z,4.60
2018-03-15T17:07:47.827Z,4.60
2018-03-15T17:10:15.379Z,4.50
2018-03-15T17:12:42.825Z,4.50
2018-03-15T17:15:11.044Z,4.50
2018-03-15T17:17:38.594Z,4.40
2018-03-15T17:20:06.076Z,4.40
2018-03-15T17:22:33.515Z,4.40
2018-03-15T17:25:00.987Z,4.40
2018-03-15T17:27:28.458Z,4.30
2018-03-15T17:29:55.911Z,4.30
2018-03-15T17:32:23.432Z,4.30
2018-03-15T17:34:50.886Z,4.30
2018-03-15T17:37:18.324Z,4.30
2018-03-15T17:39:45.815Z,4.20
2018-03-15T17:42:13.266Z,4.20
2018-03-15T17:44:40.706Z,4.20
2018-03-15T17:47:08.144Z,4.20
2018-03-15T17:49:35.730Z,4.20
2018-03-15T17:52:03.158Z,4.20
2018-03-15T17:54:31.495Z,4.20
2018-03-15T17:56:59.126Z,4.20
2018-03-15T17:59:26.552Z,4.20
2018-03-15T18:01:54.780Z,4.10
2018-03-15T18:04:22.256Z,4.10
2018-03-15T18:06:49.695Z,4.10
2018-03-15T18:09:17.158Z,4.10
2018-03-15T18:11:44.593Z,4.10
2018-03-15T18:14:12.050Z,4.10
2018-03-15T18:16:39.486Z,4.20
2018-03-15T18:19:06.947Z,4.10
2018-03-15T18:21:34.391Z,4.20
2018-03-15T18:24:01.960Z,4.20
2018-03-15T18:26:29.402Z,4.20
2018-03-15T18:28:56.837Z,4.10
2018-03-15T18:31:25.111Z,4.10
2018-03-15T18:33:52.543Z,4.00
2018-03-15T18:36:20.079Z,4.10
2018-03-15T18:38:47.618Z,4.00
2018-03-15T18:41:15.102Z,4.00
2018-03-15T18:43:42.555Z,4.10
2018-03-15T18:46:09.993Z,4.00
2018-03-15T18:48:37.423Z,4.00
2018-03-15T18:51:04.902Z,4.00
2018-03-15T18:53:32.355Z,4.00
2018-03-15T18:55:59.837Z,4.00
2018-03-15T18:58:27.372Z,4.00
2018-03-15T19:00:54.827Z,4.10
2018-03-15T19:03:22.311Z,4.10
2018-03-15T19:05:49.768Z,4.00
2018-03-15T19:08:17.216Z,4.10
2018-03-15T19:10:44.704Z,4.00
2018-03-15T19:13:12.212Z,4.10
2018-03-15T19:15:39.646Z,4.10
2018-03-15T19:18:07.226Z,4.10
2018-03-15T19:20:34.683Z,4.20
2018-03-15T19:23:02.148Z,4.20
2018-03-15T19:25:29.598Z,4.20
2018-03-15T19:27:57.051Z,4.10
2018-03-15T19:30:24.609Z,4.10
2018-03-15T19:32:52.030Z,4.10
2018-03-15T19:35:20.239Z,4.00
2018-03-15T19:37:47.710Z,3.90
2018-03-15T19:40:15.098Z,4.00
2018-03-15T19:42:42.625Z,4.00
2018-03-15T19:45:10.053Z,4.00
2018-03-15T19:47:37.494Z,4.00
2018-03-15T19:50:04.977Z,4.00
2018-03-15T19:52:32.457Z,3.90
2018-03-15T19:54:59.887Z,3.90
2018-03-15T19:57:27.369Z,4.00
2018-03-15T19:59:54.820Z,3.90
2018-03-15T20:02:22.420Z,3.80
2018-03-15T20:04:49.922Z,3.80
2018-03-15T20:07:17.597Z,3.70
2018-03-15T20:09:44.967Z,4.50
2018-03-15T20:12:12.433Z,3.80
2018-03-15T20:14:39.976Z,3.70
2018-03-15T20:17:07.419Z,3.60
2018-03-15T20:19:34.866Z,3.70
2018-03-15T20:22:02.334Z,3.70
2018-03-15T20:24:32.220Z,3.70
2018-03-15T20:26:59.828Z,3.60
2018-03-15T20:29:27.257Z,3.50
2018-03-15T20:31:55.371Z,3.60
2018-03-15T20:34:22.807Z,3.40
2018-03-15T20:36:50.268Z,3.40
2018-03-15T20:39:23.422Z,3.40
2018-03-15T20:41:50.892Z,3.40
2018-03-15T20:44:18.337Z,3.40
2018-03-15T20:46:51.434Z,3.30
2018-03-15T20:49:18.886Z,3.30
2018-03-15T20:51:46.354Z,3.30
2018-03-15T20:54:13.814Z,3.30
2018-03-15T20:56:41.352Z,3.30
2018-03-15T20:59:08.792Z,3.20
2018-03-15T21:01:36.219Z,3.20
2018-03-15T21:04:04.444Z,3.20
2018-03-15T21:06:31.916Z,3.20
2018-03-15T21:08:59.362Z,3.20
2018-03-15T21:11:26.808Z,3.30
2018-03-15T21:13:54.256Z,3.20
2018-03-15T21:16:21.718Z,3.20
2018-03-15T21:18:49.145Z,3.20
2018-03-15T21:21:17.370Z,3.20
2018-03-15T21:23:44.909Z,3.10
2018-03-15T21:26:12.382Z,3.10
2018-03-15T21:28:39.862Z,3.00
2018-03-15T21:31:07.382Z,3.00
2018-03-15T21:33:34.943Z,3.00
2018-03-15T21:36:02.422Z,2.90
2018-03-15T21:38:29.862Z,2.90
2018-03-15T21:40:57.343Z,2.90
2018-03-15T21:43:24.787Z,2.90
2018-03-15T21:45:52.319Z,2.90
2018-03-15T21:48:19.880Z,2.90
2018-03-15T21:50:47.316Z,2.80
2018-03-15T21:53:14.893Z,2.80
2018-03-15T21:55:42.328Z,2.90
2018-03-15T21:58:09.838Z,2.90
2018-03-15T22:00:37.282Z,2.80
2018-03-15T22:03:04.722Z,2.80
2018-03-15T22:05:32.295Z,2.80
2018-03-15T22:07:59.833Z,2.80
2018-03-15T22:10:27.276Z,2.70
2018-03-15T22:12:54.935Z,2.80
2018-03-15T22:15:22.375Z,2.90
2018-03-15T22:17:50.610Z,2.80
2018-03-15T22:20:18.145Z,2.80
2018-03-15T22:22:45.575Z,2.80
2018-03-15T22:25:13.095Z,2.80
2018-03-15T22:27:40.546Z,2.80
2018-03-15T22:30:07.986Z,2.80
2018-03-15T22:32:35.443Z,2.70
2018-03-15T22:35:02.917Z,2.70
2018-03-15T22:37:30.459Z,2.60
2018-03-15T22:39:57.918Z,2.70
2018-03-15T22:42:25.359Z,2.60
2018-03-15T22:44:52.794Z,2.70
2018-03-15T22:47:20.230Z,2.60
2018-03-15T22:49:48.484Z,2.70
2018-03-15T22:52:15.940Z,2.60
2018-03-15T22:54:44.884Z,2.70
2018-03-15T22:57:12.326Z,2.70
2018-03-15T22:59:39.757Z,2.80
2018-03-15T23:02:07.979Z,2.80
2018-03-15T23:04:35.410Z,2.80
2018-03-15T23:07:02.853Z,2.90
2018-03-15T23:09:31.066Z,2.80
2018-03-15T23:11:58.512Z,2.80
2018-03-15T23:14:26.091Z,2.80
2018-03-15T23:16:53.635Z,2.80
2018-03-15T23:19:21.055Z,2.80
2018-03-15T23:21:48.490Z,2.80
2018-03-15T23:24:16.019Z,2.70
2018-03-15T23:26:43.460Z,2.70
2018-03-15T23:29:10.910Z,2.70
2018-03-15T23:31:38.392Z,2.70
2018-03-15T23:34:05.862Z,2.70
2018-03-15T23:36:33.318Z,2.70
2018-03-15T23:39:00.768Z,2.70
2018-03-15T23:41:28.399Z,2.80
2018-03-15T23:43:55.878Z,2.70
2018-03-15T23:46:23.346Z,2.70
2018-03-15T23:48:50.778Z,2.70
2018-03-15T23:51:18.223Z,2.70
2018-03-15T23:53:45.658Z,2.70
2018-03-15T23:56:13.090Z,2.70
2018-03-15T23:58:41.299Z,2.60
